Flight Track Log - Related Links

Times and Time Zones

All times are in EDT time to prevent confusion due to time zone crossing. See the N1873 flight status page for this flight to view local times or setup timezone preferences in your user account.

Time Position Orientation Groundspeed Altitude Reporting Facility
EDT Latitude Longitude Course Direction KTS MPH feet Rate Location/Type
Tue 11:12:13 AM 38.0411 -87.4153 139° Southeast 280 322 7,000  Level Indianapolis Center
Tue 11:13:15 AM 37.9747 -87.3533 144° Southeast 295 339 7,000  Level Indianapolis Center
Tue 11:14:17 AM 37.9092 -87.2922 144° Southeast 295 339 7,000  Level Indianapolis Center
Tue 11:15:19 AM 37.8292 -87.2167 143° Southeast 295 339 7,000  Level Indianapolis Center
Tue 11:16:00 AM 38.0142 -87.5045 139° Southeast  Level FlightAware Approximate
Tue 11:16:21 AM 37.7594 -87.1603 147° Southeast 296 341 7,000  Level Indianapolis Center
Tue 11:17:00 AM 37.9737 -87.4605 139° Southeast  Level FlightAware Approximate
Tue 11:17:22 AM 37.6894 -87.1064 149° Southeast 296 341 7,000  Level Indianapolis Center
Tue 11:18:24 AM 37.6192 -87.0522 149° Southeast 296 341 7,000  Level Indianapolis Center
Tue 11:19:26 AM 37.5481 -86.9967 148° Southeast 296 341 7,000  Level Indianapolis Center
Tue 11:20:28 AM 37.4772 -86.9414 148° Southeast 299 344 7,000  Level Indianapolis Center
Tue 11:21:30 AM 37.4069 -86.8864 148° Southeast 298 343 7,000  Level Indianapolis Center
Tue 11:22:31 AM 37.3253 -86.8239 149° Southeast 298 343 7,000  Level Memphis Center
Tue 11:23:33 AM 37.2553 -86.7708 149° Southeast 295 339 7,000 -290 Level Memphis Center
Tue 11:24:35 AM 37.1867 -86.7169 148° Southeast 291 335 6,400 -1,113 Descending Memphis Center
Tue 11:25:37 AM 37.1261 -86.6586 142° Southeast 279 321 4,700 -1,645 Descending Memphis Center
Tue 11:26:39 AM 37.0531 -86.6231 159° South 280 322 3,000 -823 Descending Memphis Center
Tue 11:27:41 AM 36.9886 -86.5950 161° South 258 297 3,000  Level Memphis Center
Tue 11:28:43 AM 36.9347 -86.5711 160° South 223 257 3,000  Level Memphis Center
Tue 11:29:45 AM 36.8708 -86.5417 160° South 211 243 3,000  Level Memphis Center
Tue 11:30:47 AM 36.8742 -86.4806 86° East 203 234 3,000  Level Memphis Center

Login

Don't have an account? Register now (free) for customized features, flight alerts, and more!